Terminal Aerodrome Forecast
Issued by NWS

Home | Current Version | Previous Version | Text Only | Print | Product List | Glossary On
Versions: 1 2 3 4 5 6 7 8 9 10 11 12 13
000
FTUS44 KEPZ 040500
TAFDMN
TAF
KDMN 040537Z 0406/0506 26007KT P6SM SCT100
     FM042000 22012G20KT P6SM VCSH SCT100
     FM050000 24014G25KT P6SM SCT120=

USA.gov is the U.S. government's official web portal to all federal, state and local government web resources and services.